createdAt,value
2022-12-31T00:00:21.895Z,125.10
2022-12-31T00:03:13.608Z,117.30
2022-12-31T00:05:45.587Z,121.40
2022-12-31T00:08:17.191Z,132.20
2022-12-31T00:10:48.831Z,134.50
2022-12-31T00:13:21.535Z,129.50
2022-12-31T00:15:53.140Z,144.50
2022-12-31T00:18:24.802Z,153.50
2022-12-31T00:20:56.466Z,134.40
2022-12-31T00:23:28.038Z,137.50
2022-12-31T00:26:02.728Z,123.00
2022-12-31T00:28:34.838Z,125.50
2022-12-31T00:31:12.342Z,130.30
2022-12-31T00:33:44.545Z,138.80
2022-12-31T00:36:18.477Z,124.20
2022-12-31T00:38:51.945Z,120.40
2022-12-31T00:43:55.224Z,98.20
2022-12-31T00:46:27.541Z,112.80
2022-12-31T00:48:59.346Z,110.20
2022-12-31T00:51:31.532Z,105.00
2022-12-31T00:54:03.181Z,109.70
2022-12-31T00:56:35.324Z,108.00
2022-12-31T00:59:08.010Z,122.00
2022-12-31T01:01:41.722Z,111.00
2022-12-31T01:04:18.442Z,114.50
2022-12-31T01:06:50.454Z,122.70
2022-12-31T01:09:22.228Z,120.50
2022-12-31T01:11:54.174Z,113.90
2022-12-31T01:14:25.938Z,112.10
2022-12-31T01:16:57.499Z,110.70
2022-12-31T01:19:30.571Z,105.40
2022-12-31T01:22:02.173Z,116.50
2022-12-31T01:24:33.761Z,117.30
2022-12-31T01:27:05.376Z,115.00
2022-12-31T01:29:36.998Z,109.10
2022-12-31T01:32:08.854Z,107.90
2022-12-31T01:34:40.442Z,103.40
2022-12-31T01:37:12.036Z,101.30
2022-12-31T01:39:43.613Z,103.10
2022-12-31T01:42:15.257Z,98.60
2022-12-31T01:45:03.565Z,104.10
2022-12-31T01:47:40.745Z,112.90
2022-12-31T01:50:17.235Z,118.80
2022-12-31T01:52:51.731Z,115.60
2022-12-31T01:55:27.619Z,109.90
2022-12-31T01:58:05.682Z,105.40
2022-12-31T02:00:37.826Z,108.20
2022-12-31T02:03:10.251Z,109.60
2022-12-31T02:05:48.960Z,115.40
2022-12-31T02:08:22.049Z,112.50
2022-12-31T02:10:53.881Z,99.70
2022-12-31T02:13:27.099Z,117.10
2022-12-31T02:16:06.896Z,116.80
2022-12-31T02:18:44.741Z,116.30
2022-12-31T02:21:44.926Z,120.10
2022-12-31T02:24:49.460Z,112.20
2022-12-31T02:27:32.463Z,118.20
2022-12-31T02:30:13.804Z,105.00
2022-12-31T02:33:02.810Z,120.40
2022-12-31T02:35:42.632Z,98.90
2022-12-31T02:38:19.020Z,105.30
2022-12-31T02:40:51.177Z,105.30
2022-12-31T02:43:23.222Z,110.60
2022-12-31T02:46:05.395Z,99.30
2022-12-31T02:48:46.741Z,114.60
2022-12-31T02:51:35.633Z,100.10
2022-12-31T02:54:33.041Z,108.60
2022-12-31T02:57:12.354Z,100.20
2022-12-31T03:00:09.333Z,103.70
2022-12-31T03:02:43.989Z,88.10
2022-12-31T03:05:18.378Z,97.70
2022-12-31T03:07:50.648Z,91.90
2022-12-31T03:10:23.022Z,98.90
2022-12-31T03:12:54.742Z,94.10
2022-12-31T03:15:30.448Z,83.90
2022-12-31T03:18:04.679Z,83.50
2022-12-31T03:20:56.135Z,91.20
2022-12-31T03:23:30.008Z,79.60
2022-12-31T03:26:02.692Z,89.40
2022-12-31T03:28:34.365Z,79.80
2022-12-31T03:31:07.268Z,75.80
2022-12-31T03:33:41.861Z,80.40
2022-12-31T03:36:15.557Z,63.40
2022-12-31T03:41:24.398Z,63.40
2022-12-31T03:43:56.032Z,63.70
2022-12-31T03:46:27.773Z,73.20
2022-12-31T03:48:59.780Z,70.10
2022-12-31T03:51:31.435Z,54.00
2022-12-31T03:54:03.021Z,54.90
2022-12-31T03:56:34.830Z,51.80
2022-12-31T03:59:06.464Z,49.30
2022-12-31T04:01:38.724Z,50.50
2022-12-31T04:04:10.465Z,50.00
2022-12-31T04:06:42.050Z,39.80
2022-12-31T04:09:13.680Z,42.10
2022-12-31T04:11:45.323Z,38.10
2022-12-31T04:14:17.763Z,40.80
2022-12-31T04:16:49.547Z,37.00
2022-12-31T04:19:21.520Z,41.00
2022-12-31T04:21:53.331Z,37.60
2022-12-31T04:24:25.008Z,33.60
2022-12-31T04:26:59.666Z,28.80
2022-12-31T04:29:35.605Z,34.50
2022-12-31T04:32:08.652Z,33.80
2022-12-31T04:34:40.699Z,36.60
2022-12-31T04:37:12.345Z,30.00
2022-12-31T04:39:44.009Z,28.70
2022-12-31T04:42:15.780Z,29.10
2022-12-31T04:44:47.467Z,24.10
2022-12-31T04:47:23.623Z,21.70
2022-12-31T04:49:55.768Z,19.70
2022-12-31T04:52:27.876Z,20.80
2022-12-31T04:54:59.811Z,20.10
2022-12-31T04:57:31.522Z,23.80
2022-12-31T05:00:03.875Z,23.20
2022-12-31T05:02:35.852Z,25.00
2022-12-31T05:05:09.190Z,28.00
2022-12-31T05:07:40.823Z,26.20
2022-12-31T05:10:12.664Z,25.70
2022-12-31T05:12:44.334Z,27.70
2022-12-31T05:15:16.224Z,28.00
2022-12-31T05:17:47.809Z,22.70
2022-12-31T05:20:19.494Z,25.80
2022-12-31T05:22:51.141Z,23.90
2022-12-31T05:25:22.713Z,21.10
2022-12-31T05:27:54.506Z,22.40
2022-12-31T05:30:26.679Z,20.50
2022-12-31T05:32:58.593Z,21.20
2022-12-31T05:35:30.262Z,17.20
2022-12-31T05:38:03.909Z,17.00
2022-12-31T05:43:05.699Z,15.40
2022-12-31T05:45:37.421Z,15.60
2022-12-31T05:48:09.635Z,15.10
2022-12-31T05:50:41.309Z,16.70
2022-12-31T05:53:13.320Z,17.40
2022-12-31T05:55:45.751Z,16.20
2022-12-31T05:58:18.008Z,19.60
2022-12-31T06:00:49.656Z,19.80
2022-12-31T06:03:21.457Z,18.40
2022-12-31T06:05:53.400Z,18.60
2022-12-31T06:08:25.052Z,18.80
2022-12-31T06:10:56.648Z,17.50
2022-12-31T06:13:28.780Z,18.60
2022-12-31T06:16:05.537Z,18.30
2022-12-31T06:18:37.431Z,19.00
2022-12-31T06:21:09.836Z,16.80
2022-12-31T06:23:42.757Z,13.40
2022-12-31T06:26:14.548Z,15.10
2022-12-31T06:28:46.334Z,15.70
2022-12-31T06:31:18.286Z,14.90
2022-12-31T06:33:49.935Z,14.40
2022-12-31T06:36:22.302Z,14.40
2022-12-31T06:38:54.006Z,12.90
2022-12-31T06:41:25.814Z,14.20
2022-12-31T06:43:57.693Z,14.20
2022-12-31T06:46:29.804Z,11.90
2022-12-31T06:49:01.490Z,11.70
2022-12-31T06:51:33.213Z,13.70
2022-12-31T06:54:05.166Z,10.40
2022-12-31T06:56:38.327Z,11.00
2022-12-31T06:59:24.334Z,12.50
2022-12-31T07:02:23.544Z,13.50
2022-12-31T07:05:23.452Z,15.00
2022-12-31T07:08:09.604Z,14.10
2022-12-31T07:10:53.595Z,13.70
2022-12-31T07:16:21.485Z,14.60
2022-12-31T07:19:03.818Z,14.40
2022-12-31T07:21:38.578Z,15.10
2022-12-31T07:24:12.666Z,16.40
2022-12-31T07:26:57.294Z,13.30
2022-12-31T07:29:41.804Z,14.60
2022-12-31T07:32:29.690Z,11.40
2022-12-31T07:35:10.816Z,11.70
2022-12-31T07:37:52.543Z,10.80
2022-12-31T07:40:38.779Z,13.20
2022-12-31T07:43:19.192Z,11.90
2022-12-31T07:45:59.212Z,10.30
2022-12-31T07:48:31.929Z,10.70
2022-12-31T07:51:04.726Z,10.20
2022-12-31T07:53:37.618Z,9.20
2022-12-31T07:56:10.822Z,9.80
2022-12-31T07:59:00.113Z,10.40
2022-12-31T08:01:43.136Z,10.70
2022-12-31T08:04:24.867Z,8.30
2022-12-31T08:07:04.673Z,11.00
2022-12-31T08:09:47.891Z,11.60
2022-12-31T08:12:21.972Z,11.50
2022-12-31T08:14:54.603Z,11.60
2022-12-31T08:17:27.101Z,14.00
2022-12-31T08:20:00.232Z,11.60
2022-12-31T08:23:06.599Z,12.50
2022-12-31T08:25:54.007Z,12.60
2022-12-31T08:28:37.779Z,13.30
2022-12-31T08:31:16.144Z,12.90
2022-12-31T08:33:59.460Z,12.00
2022-12-31T08:36:46.325Z,8.50
2022-12-31T08:39:33.015Z,8.60
2022-12-31T08:42:13.946Z,10.70
2022-12-31T08:44:56.021Z,7.50
2022-12-31T08:47:38.431Z,7.20
2022-12-31T08:50:16.990Z,8.20
2022-12-31T08:52:51.285Z,7.70
2022-12-31T08:55:24.407Z,8.60
2022-12-31T08:58:09.368Z,8.50
2022-12-31T09:00:41.944Z,9.50
2022-12-31T09:03:27.179Z,9.40
2022-12-31T09:06:09.927Z,9.50
2022-12-31T09:08:52.301Z,9.60
2022-12-31T09:11:29.921Z,10.00
2022-12-31T09:14:18.538Z,9.90
2022-12-31T09:17:02.180Z,10.60
2022-12-31T09:19:33.747Z,8.40
2022-12-31T09:22:06.507Z,7.30
2022-12-31T09:24:39.208Z,8.40
2022-12-31T09:27:27.017Z,7.60
2022-12-31T09:30:06.201Z,9.60
2022-12-31T09:32:48.069Z,8.50
2022-12-31T09:35:29.533Z,9.40
2022-12-31T09:38:11.426Z,10.90
2022-12-31T09:41:09.357Z,9.40
2022-12-31T09:44:16.871Z,10.00
2022-12-31T09:47:20.257Z,11.90
2022-12-31T09:50:21.760Z,11.90
2022-12-31T09:53:13.887Z,10.30
2022-12-31T09:55:50.569Z,10.00
2022-12-31T09:58:40.444Z,9.60
2022-12-31T10:01:24.618Z,9.40
2022-12-31T10:04:24.955Z,7.80
2022-12-31T10:07:10.437Z,8.70
2022-12-31T10:09:54.652Z,10.30
2022-12-31T10:12:42.556Z,8.70
2022-12-31T10:15:41.394Z,7.90
2022-12-31T10:18:31.073Z,8.00
2022-12-31T10:21:16.696Z,9.90
2022-12-31T10:24:18.543Z,8.20
2022-12-31T10:27:10.166Z,8.30
2022-12-31T10:29:48.855Z,9.20
2022-12-31T10:32:31.416Z,9.80
2022-12-31T10:35:20.934Z,7.60
2022-12-31T10:38:03.910Z,7.70
2022-12-31T10:40:55.424Z,7.90
2022-12-31T10:43:54.267Z,7.00
2022-12-31T10:47:12.993Z,7.30
2022-12-31T10:50:29.018Z,6.10
2022-12-31T10:53:26.772Z,8.50
2022-12-31T10:56:44.100Z,8.20
2022-12-31T10:59:54.214Z,9.80
2022-12-31T11:03:05.383Z,8.20
2022-12-31T11:06:12.628Z,7.80
2022-12-31T11:09:17.877Z,6.90
2022-12-31T11:11:58.888Z,6.40
2022-12-31T11:15:12.561Z,7.90
2022-12-31T11:17:59.318Z,6.20
2022-12-31T11:20:47.469Z,6.00
2022-12-31T11:23:33.238Z,6.80
2022-12-31T11:26:19.370Z,5.70
2022-12-31T11:29:02.310Z,6.30
2022-12-31T11:31:53.126Z,5.30
2022-12-31T11:34:57.719Z,5.20
2022-12-31T11:37:38.094Z,7.10
2022-12-31T11:40:28.216Z,7.10
2022-12-31T11:43:02.001Z,8.20
2022-12-31T11:48:31.804Z,7.40
2022-12-31T11:51:23.728Z,6.90
2022-12-31T11:54:14.660Z,6.10
2022-12-31T11:56:52.332Z,7.90
2022-12-31T11:59:24.414Z,6.90
2022-12-31T12:02:01.409Z,6.70
2022-12-31T12:04:33.485Z,7.90
2022-12-31T12:07:09.795Z,7.00
2022-12-31T12:09:42.379Z,7.60
2022-12-31T12:12:15.589Z,7.60
2022-12-31T12:14:51.551Z,8.60
2022-12-31T12:17:32.232Z,7.30
2022-12-31T12:20:08.799Z,7.40
2022-12-31T12:22:52.024Z,6.70
2022-12-31T12:25:25.297Z,6.00
2022-12-31T12:27:56.914Z,7.80
2022-12-31T12:30:29.859Z,6.40
2022-12-31T12:33:04.788Z,7.50
2022-12-31T12:35:39.394Z,8.40
2022-12-31T12:38:17.198Z,5.60
2022-12-31T12:40:59.006Z,6.70
2022-12-31T12:43:32.857Z,6.90
2022-12-31T12:48:42.150Z,6.70
2022-12-31T12:51:27.046Z,8.00
2022-12-31T12:54:09.810Z,8.00
2022-12-31T12:56:50.855Z,7.00
2022-12-31T12:59:42.116Z,8.80
2022-12-31T13:02:40.696Z,9.40
2022-12-31T13:05:28.709Z,6.40
2022-12-31T13:08:12.228Z,8.10
2022-12-31T13:10:58.410Z,7.00
2022-12-31T13:13:41.634Z,6.60
2022-12-31T13:16:19.529Z,8.30
2022-12-31T13:18:59.749Z,8.00
2022-12-31T13:21:45.406Z,6.80
2022-12-31T13:24:33.953Z,6.60
2022-12-31T13:27:14.104Z,6.40
2022-12-31T13:29:47.967Z,7.60
2022-12-31T13:34:57.492Z,8.10
2022-12-31T13:37:37.618Z,7.60
2022-12-31T13:40:22.543Z,10.40
2022-12-31T13:43:00.752Z,7.90
2022-12-31T13:45:40.389Z,8.00
2022-12-31T13:48:20.250Z,7.70
2022-12-31T13:50:56.039Z,10.60
2022-12-31T13:53:32.588Z,8.90
2022-12-31T13:56:11.057Z,7.70
2022-12-31T13:58:49.930Z,8.40
2022-12-31T14:01:33.601Z,6.70
2022-12-31T14:06:48.114Z,6.80
2022-12-31T14:09:23.968Z,6.80
2022-12-31T14:12:07.285Z,6.10
2022-12-31T14:14:47.478Z,7.00
2022-12-31T14:17:27.791Z,6.30
2022-12-31T14:20:10.326Z,6.40
2022-12-31T14:22:49.429Z,7.30
2022-12-31T14:25:26.217Z,8.30
2022-12-31T14:28:00.625Z,7.10
2022-12-31T14:30:35.566Z,7.90
2022-12-31T14:33:27.106Z,7.90
2022-12-31T14:36:22.468Z,7.80
2022-12-31T14:39:07.319Z,8.70
2022-12-31T14:41:53.674Z,8.00
2022-12-31T14:44:43.778Z,9.60
2022-12-31T14:47:29.126Z,7.70
2022-12-31T14:50:07.396Z,9.50
2022-12-31T14:52:51.929Z,12.30
2022-12-31T14:55:30.139Z,12.10
2022-12-31T15:00:57.448Z,11.60
2022-12-31T15:03:43.007Z,9.20
2022-12-31T15:06:36.828Z,11.70
2022-12-31T15:09:20.709Z,11.70
2022-12-31T15:12:08.699Z,9.80
2022-12-31T15:14:59.696Z,9.40
2022-12-31T15:17:43.533Z,9.80
2022-12-31T15:20:43.979Z,10.70
2022-12-31T15:23:24.569Z,10.40
2022-12-31T15:26:01.725Z,9.50
2022-12-31T15:28:37.084Z,10.00
2022-12-31T15:31:19.440Z,9.60
2022-12-31T15:34:00.541Z,9.10
2022-12-31T15:36:35.454Z,10.80
2022-12-31T15:39:24.303Z,12.60
2022-12-31T15:44:56.176Z,9.00
2022-12-31T15:47:31.591Z,9.50
2022-12-31T15:50:07.749Z,20.10
2022-12-31T15:52:44.421Z,11.00
2022-12-31T15:55:26.220Z,10.30
2022-12-31T15:58:05.050Z,18.50
2022-12-31T16:00:54.972Z,10.90
2022-12-31T16:03:29.022Z,13.50
2022-12-31T16:06:03.682Z,11.70
2022-12-31T16:08:38.194Z,11.90
2022-12-31T16:11:11.254Z,17.20
2022-12-31T16:13:46.696Z,17.20
2022-12-31T16:16:26.884Z,10.10
2022-12-31T16:18:59.372Z,9.50
2022-12-31T16:21:34.350Z,11.80
2022-12-31T16:24:08.478Z,12.30
2022-12-31T16:26:46.911Z,10.90
2022-12-31T16:29:20.872Z,11.00
2022-12-31T16:31:54.412Z,12.10
2022-12-31T16:34:27.902Z,10.00
2022-12-31T16:37:01.849Z,8.50
2022-12-31T16:39:35.959Z,8.60
2022-12-31T16:42:20.975Z,7.90
2022-12-31T16:44:55.635Z,8.00
2022-12-31T16:47:33.181Z,11.40
2022-12-31T16:50:11.960Z,7.40
2022-12-31T16:52:45.636Z,6.50
2022-12-31T16:55:23.281Z,8.80
2022-12-31T16:57:59.638Z,8.40
2022-12-31T17:00:32.944Z,9.10
2022-12-31T17:03:15.454Z,9.30
2022-12-31T17:05:59.944Z,8.40
2022-12-31T17:08:42.601Z,9.70
2022-12-31T17:11:29.483Z,10.20
2022-12-31T17:14:08.128Z,9.90
2022-12-31T17:16:43.734Z,8.90
2022-12-31T17:19:33.505Z,10.60
2022-12-31T17:22:06.493Z,11.70
2022-12-31T17:24:39.599Z,12.90
2022-12-31T17:27:11.983Z,10.00
2022-12-31T17:29:44.170Z,11.10
2022-12-31T17:32:36.584Z,9.90
2022-12-31T17:35:30.230Z,10.80
2022-12-31T17:38:32.130Z,10.60
2022-12-31T17:41:25.991Z,12.30
2022-12-31T17:43:58.615Z,13.70
2022-12-31T17:46:30.324Z,14.20
2022-12-31T17:49:03.854Z,14.00
2022-12-31T17:51:35.389Z,13.10
2022-12-31T17:54:13.312Z,14.60
2022-12-31T17:56:45.430Z,14.60
2022-12-31T17:59:19.325Z,13.50
2022-12-31T18:01:51.366Z,13.70
2022-12-31T18:04:23.218Z,14.00
2022-12-31T18:06:54.830Z,12.30
2022-12-31T18:09:26.460Z,12.00
2022-12-31T18:12:01.478Z,13.80
2022-12-31T18:14:33.703Z,11.80
2022-12-31T18:17:07.165Z,12.20
2022-12-31T18:20:03.591Z,13.00
2022-12-31T18:22:30.846Z,11.20
2022-12-31T18:25:03.168Z,9.20
2022-12-31T18:27:35.081Z,10.60
2022-12-31T18:30:09.673Z,10.20
2022-12-31T18:32:42.779Z,10.30
2022-12-31T18:35:40.782Z,9.50
2022-12-31T18:38:14.841Z,8.60
2022-12-31T18:40:51.990Z,9.50
2022-12-31T18:43:25.015Z,8.90
2022-12-31T18:45:57.065Z,8.20
2022-12-31T18:48:29.128Z,7.90
2022-12-31T18:51:00.715Z,9.50
2022-12-31T18:53:32.303Z,7.90
2022-12-31T18:56:03.900Z,9.50
2022-12-31T18:58:35.496Z,9.00
2022-12-31T19:01:10.885Z,9.60
2022-12-31T19:03:42.712Z,10.20
2022-12-31T19:06:14.334Z,9.00
2022-12-31T19:08:45.975Z,9.40
2022-12-31T19:11:17.996Z,9.80
2022-12-31T19:13:50.337Z,9.40
2022-12-31T19:16:22.324Z,9.10
2022-12-31T19:18:54.240Z,8.70
2022-12-31T19:21:25.798Z,9.40
2022-12-31T19:23:57.455Z,9.60
2022-12-31T19:26:29.814Z,9.10
2022-12-31T19:29:01.463Z,9.00
2022-12-31T19:31:33.092Z,9.00
2022-12-31T19:34:04.821Z,9.30
2022-12-31T19:36:43.552Z,8.50
2022-12-31T19:39:18.294Z,8.00
2022-12-31T19:41:58.416Z,8.70
2022-12-31T19:44:30.545Z,8.40
2022-12-31T19:47:02.153Z,8.30
2022-12-31T19:49:33.741Z,8.10
2022-12-31T19:52:05.576Z,8.20
2022-12-31T19:54:37.256Z,7.90
2022-12-31T19:57:08.932Z,7.40
2022-12-31T19:59:40.898Z,8.90
2022-12-31T20:02:13.506Z,8.80
2022-12-31T20:04:45.505Z,7.80
2022-12-31T20:07:22.144Z,10.50
2022-12-31T20:09:57.107Z,8.20
2022-12-31T20:12:29.859Z,8.60
2022-12-31T20:15:01.505Z,8.00
2022-12-31T20:17:33.100Z,8.30
2022-12-31T20:20:05.498Z,6.70
2022-12-31T20:22:37.141Z,8.60
2022-12-31T20:25:10.569Z,8.10
2022-12-31T20:27:42.190Z,8.90
2022-12-31T20:30:15.563Z,9.20
2022-12-31T20:32:47.415Z,9.40
2022-12-31T20:35:19.167Z,12.50
2022-12-31T20:37:50.817Z,12.00
2022-12-31T20:40:22.633Z,10.50
2022-12-31T20:42:54.519Z,9.70
2022-12-31T20:45:26.154Z,9.40
2022-12-31T20:47:57.827Z,8.50
2022-12-31T20:50:29.502Z,9.40
2022-12-31T20:53:01.131Z,9.00
2022-12-31T20:55:33.328Z,9.30
2022-12-31T20:58:06.204Z,8.90
2022-12-31T21:00:37.819Z,8.90
2022-12-31T21:03:30.082Z,9.70
2022-12-31T21:06:01.119Z,9.20
2022-12-31T21:08:35.251Z,9.30
2022-12-31T21:11:28.604Z,8.90
2022-12-31T21:14:02.619Z,8.40
2022-12-31T21:16:34.310Z,9.20
2022-12-31T21:19:06.531Z,9.80
2022-12-31T21:21:39.276Z,10.60
2022-12-31T21:24:11.760Z,9.80
2022-12-31T21:26:43.527Z,10.80
2022-12-31T21:29:15.432Z,10.30
2022-12-31T21:31:46.996Z,11.30
2022-12-31T21:34:18.621Z,11.60
2022-12-31T21:36:50.232Z,13.10
2022-12-31T21:39:21.885Z,11.50
2022-12-31T21:41:53.813Z,11.10
2022-12-31T21:44:28.105Z,12.30
2022-12-31T21:47:44.026Z,10.80
2022-12-31T21:50:14.114Z,13.60
2022-12-31T21:52:45.687Z,14.40
2022-12-31T21:55:35.620Z,11.10
2022-12-31T22:01:18.126Z,13.00
2022-12-31T22:03:50.061Z,15.50
2022-12-31T22:06:23.665Z,13.60
2022-12-31T22:08:57.095Z,14.00
2022-12-31T22:11:29.699Z,13.60
2022-12-31T22:14:01.455Z,12.80
2022-12-31T22:16:33.160Z,17.10
2022-12-31T22:19:04.851Z,14.60
2022-12-31T22:21:36.399Z,14.90
2022-12-31T22:24:09.500Z,12.90
2022-12-31T22:26:46.467Z,14.90
2022-12-31T22:29:19.707Z,14.80
2022-12-31T22:31:52.267Z,16.00
2022-12-31T22:34:26.655Z,12.40
2022-12-31T22:36:58.853Z,15.20
2022-12-31T22:39:44.435Z,14.10
2022-12-31T22:42:16.784Z,18.00
2022-12-31T22:44:49.526Z,18.30
2022-12-31T22:47:21.352Z,15.90
2022-12-31T22:49:52.989Z,16.90
2022-12-31T22:52:24.628Z,17.30
2022-12-31T22:54:56.310Z,18.60
2022-12-31T22:57:27.924Z,18.10
2022-12-31T22:59:59.673Z,20.80
2022-12-31T23:02:31.567Z,21.90
2022-12-31T23:05:14.828Z,18.90
2022-12-31T23:07:47.536Z,22.90
2022-12-31T23:10:37.451Z,23.60
2022-12-31T23:13:27.022Z,28.90
2022-12-31T23:16:16.396Z,37.90
2022-12-31T23:19:05.904Z,40.90
2022-12-31T23:21:55.204Z,46.80
2022-12-31T23:24:28.940Z,42.70
2022-12-31T23:29:31.104Z,41.30
2022-12-31T23:32:02.861Z,41.30
2022-12-31T23:34:34.547Z,33.80
2022-12-31T23:37:06.172Z,37.00
2022-12-31T23:39:37.862Z,34.90
2022-12-31T23:42:09.729Z,26.10
2022-12-31T23:44:41.278Z,24.20
2022-12-31T23:47:13.014Z,20.90
2022-12-31T23:49:44.612Z,21.50
2022-12-31T23:52:16.350Z,18.50
2022-12-31T23:54:48.090Z,19.30
2022-12-31T23:57:19.803Z,16.80
2022-12-31T23:59:51.428Z,14.70
